Time;durP1;ratioP1;P1;durP2;ratioP2;P2;SDS_P1;SDS_P2;PMS_P1;PMS_P2;Temp;Humidity;BMP_temperature;BMP_pressure;BME280_temperature;BME280_humidity;BME280_pressure;Samples;Min_cycle;Max_cycle;Signal;HPM_P1;HPM_P2
2021/09/11 00:01:20;;;;;;;10.45;8.90;;;17.30;99.90;;;;;;6250850;28;20025;-89
2021/09/11 00:04:20;;;;;;;9.93;8.80;;;17.10;99.90;;;;;;6217973;28;20083;-86
2021/09/11 00:07:22;;;;;;;8.68;7.78;;;;;;;;;;6217773;28;20025;-89
2021/09/11 00:10:22;;;;;;;8.85;7.53;;;17.10;99.90;;;;;;6250596;28;20017;-86
2021/09/11 00:13:23;;;;;;;8.02;7.15;;;;;;;;;;6218223;28;20423;-87
2021/09/11 00:16:26;;;;;;;8.32;6.75;;;16.90;99.90;;;;;;6234797;28;20522;-87
2021/09/11 00:19:27;;;;;;;8.60;7.35;;;17.10;99.90;;;;;;6218380;28;20033;-87
2021/09/11 00:22:28;;;;;;;10.70;7.30;;;;;;;;;;6218176;28;20398;-89
2021/09/11 00:25:29;;;;;;;8.75;6.70;;;;;;;;;;6234447;28;20040;-90
2021/09/11 00:28:30;;;;;;;8.73;7.00;;;16.80;99.90;;;;;;6234579;28;20029;-88
2021/09/11 00:31:30;;;;;;;8.95;7.10;;;16.80;99.90;;;;;;6218152;28;20028;-88
2021/09/11 00:34:31;;;;;;;7.88;7.07;;;16.90;99.90;;;;;;6217221;28;20048;-87
2021/09/11 00:37:32;;;;;;;22.50;7.72;;;;;;;;;;6218123;28;20064;-87
2021/09/11 00:40:33;;;;;;;8.20;6.78;;;;;;;;;;6237965;28;20029;-89
2021/09/11 00:43:35;;;;;;;8.65;6.35;;;;;;;;;;6239292;28;20067;-87
2021/09/11 00:46:35;;;;;;;10.32;6.75;;;16.80;99.90;;;;;;6238729;28;20535;-86
2021/09/11 00:49:36;;;;;;;9.35;6.25;;;;;;;;;;6222430;28;20025;-87
2021/09/11 00:52:38;;;;;;;7.80;6.80;;;16.90;99.90;;;;;;6239082;28;20028;-88
2021/09/11 00:55:41;;;;;;;8.70;6.93;;;16.80;99.90;;;;;;6222329;28;20041;-87
2021/09/11 00:58:42;;;;;;;6.78;6.07;;;17.00;99.90;;;;;;6222465;28;20477;-86
2021/09/11 01:01:43;;;;;;;7.40;6.70;;;16.70;99.90;;;;;;6222117;28;20024;-87
2021/09/11 01:04:44;;;;;;;8.27;6.90;;;;;;;;;;6238868;28;21151;-86
2021/09/11 01:07:45;;;;;;;7.65;6.57;;;;;;;;;;6238232;28;20112;-88
2021/09/11 01:10:45;;;;;;;9.00;6.22;;;16.70;99.90;;;;;;6238710;28;20024;-88
2021/09/11 01:13:46;;;;;;;7.07;6.38;;;;;;;;;;6221799;28;20033;-86
2021/09/11 01:16:47;;;;;;;7.85;6.35;;;;;;;;;;6238136;28;20021;-87
2021/09/11 01:19:48;;;;;;;8.15;6.68;;;;;;;;;;6254947;28;20459;-89
2021/09/11 01:22:49;;;;;;;7.07;6.05;;;;;;;;;;6254584;28;20060;-87
2021/09/11 01:25:50;;;;;;;6.15;5.55;;;;;;;;;;6237842;28;20083;-87
2021/09/11 01:28:51;;;;;;;8.05;6.30;;;16.60;99.90;;;;;;6237430;28;20114;-87
2021/09/11 01:31:53;;;;;;;7.93;6.13;;;;;;;;;;6237784;28;20021;-89
2021/09/11 01:34:54;;;;;;;7.38;5.88;;;;;;;;;;6237306;28;20391;-87
2021/09/11 01:37:54;;;;;;;6.70;5.75;;;16.80;99.90;;;;;;6237626;28;20033;-87
2021/09/11 01:40:55;;;;;;;5.35;4.85;;;;;;;;;;6221032;28;20071;-87
2021/09/11 01:43:56;;;;;;;6.00;5.40;;;;;;;;;;6237319;28;20039;-86
2021/09/11 01:46:57;;;;;;;5.55;4.95;;;16.90;99.90;;;;;;6237519;28;20070;-87
2021/09/11 01:49:58;;;;;;;5.78;5.07;;;;;;;;;;6219753;28;20094;-87
2021/09/11 01:52:59;;;;;;;5.32;4.82;;;;;;;;;;6237482;28;20020;-85
2021/09/11 01:55:59;;;;;;;5.68;5.05;;;16.70;99.90;;;;;;6236821;28;20040;-88
2021/09/11 01:59:00;;;;;;;5.70;4.97;;;;;;;;;;6220754;28;20029;-87
2021/09/11 02:02:04;;;;;;;7.32;5.07;;;;;;;;;;6237240;28;20644;-86
2021/09/11 02:05:05;;;;;;;6.43;4.95;;;16.70;99.90;;;;;;6236809;28;20064;-86
2021/09/11 02:08:07;;;;;;;7.07;5.50;;;;;;;;;;6220395;28;20402;-86
2021/09/11 02:11:08;;;;;;;7.32;5.30;;;;;;;;;;6237097;28;20025;-89
2021/09/11 02:14:09;;;;;;;6.28;5.68;;;16.50;99.90;;;;;;6253262;28;20532;-85
2021/09/11 02:17:09;;;;;;;7.22;5.55;;;16.70;99.90;;;;;;6219599;28;20036;-86
2021/09/11 02:20:10;;;;;;;6.22;5.63;;;16.70;99.90;;;;;;6220095;28;20029;-88
2021/09/11 02:23:11;;;;;;;5.78;5.15;;;;;;;;;;6236592;28;20043;-86
2021/09/11 02:26:12;;;;;;;5.57;5.00;;;16.60;99.90;;;;;;6236372;28;20017;-88
2021/09/11 02:29:13;;;;;;;6.32;5.60;;;16.70;99.90;;;;;;6220045;28;20044;-85
2021/09/11 02:32:13;;;;;;;7.18;5.53;;;16.60;99.90;;;;;;6220058;28;20021;-85
2021/09/11 02:35:14;;;;;;;6.05;5.45;;;16.70;99.90;;;;;;6219081;28;20123;-87
2021/09/11 02:38:15;;;;;;;6.28;5.43;;;16.70;99.90;;;;;;6219553;28;20159;-86
2021/09/11 02:41:16;;;;;;;6.18;5.45;;;;;;;;;;6219758;28;20059;-86
2021/09/11 02:44:16;;;;;;;7.28;5.72;;;16.70;99.90;;;;;;6235862;28;20449;-87
2021/09/11 02:47:20;;;;;;;5.38;4.88;;;;;;;;;;6219507;28;20074;-88
2021/09/11 02:50:20;;;;;;;5.45;4.88;;;17.10;99.90;;;;;;6235942;28;20017;-87
2021/09/11 02:53:21;;;;;;;5.13;4.63;;;;;;;;;;6219420;28;20055;-88
2021/09/11 02:56:22;;;;;;;6.82;5.10;;;;;;;;;;6235767;28;20123;-88
2021/09/11 02:59:23;;;;;;;6.30;5.38;;;16.90;99.90;;;;;;6252437;28;20482;-87
2021/09/11 03:02:24;;;;;;;5.45;4.43;;;;;;;;;;6219188;28;20025;-87
2021/09/11 03:05:24;;;;;;;5.82;4.97;;;16.70;99.90;;;;;;6235568;28;20025;-87
2021/09/11 03:08:25;;;;;;;5.22;4.70;;;16.70;99.90;;;;;;6219072;28;20079;-88
2021/09/11 03:11:26;;;;;;;6.10;5.10;;;;;;;;;;6235661;28;20405;-86
2021/09/11 03:14:27;;;;;;;6.35;5.22;;;16.70;99.90;;;;;;6235447;28;20033;-87
2021/09/11 03:17:27;;;;;;;6.63;5.70;;;16.60;99.90;;;;;;6218519;28;20041;-86
2021/09/11 03:20:28;;;;;;;5.60;5.00;;;;;;;;;;6219001;28;20088;-86
2021/09/11 03:23:29;;;;;;;4.93;4.50;;;16.60;99.90;;;;;;6235098;28;20025;-88
2021/09/11 03:26:30;;;;;;;6.57;4.93;;;;;;;;;;6219116;28;20029;-87
2021/09/11 03:29:31;;;;;;;5.32;4.82;;;;;;;;;;6235056;28;20029;-86
2021/09/11 03:32:31;;;;;;;5.50;4.97;;;16.60;99.90;;;;;;6235001;28;20132;-86
2021/09/11 03:35:32;;;;;;;6.07;5.25;;;;;;;;;;6218271;28;20049;-88
2021/09/11 03:38:33;;;;;;;6.30;5.70;;;16.50;99.90;;;;;;6251505;28;20084;-88
2021/09/11 03:41:34;;;;;;;6.43;5.38;;;;;;;;;;6218556;28;20021;-88
2021/09/11 03:44:35;;;;;;;8.02;5.57;;;16.40;99.90;;;;;;6234764;28;20052;-89
2021/09/11 03:47:36;;;;;;;6.57;5.40;;;16.40;99.90;;;;;;6218513;28;20133;-87
2021/09/11 03:50:36;;;;;;;5.68;4.80;;;16.30;99.90;;;;;;6218030;28;20447;-87
2021/09/11 03:53:37;;;;;;;7.30;5.50;;;16.30;99.90;;;;;;6218284;28;20053;-88
2021/09/11 03:56:39;;;;;;;6.20;5.30;;;;;;;;;;6218011;28;20471;-87
2021/09/11 03:59:40;;;;;;;5.97;5.45;;;;;;;;;;6234683;28;20092;-86
2021/09/11 04:02:41;;;;;;;5.82;5.22;;;;;;;;;;6234660;28;20021;-87
2021/09/11 04:05:41;;;;;;;8.10;5.72;;;15.90;99.90;;;;;;6234570;28;20017;-87
2021/09/11 04:08:42;;;;;;;6.72;5.45;;;;;;;;;;6217557;28;20451;-88
2021/09/11 04:11:43;;;;;;;6.18;5.50;;;15.80;99.90;;;;;;6234480;28;20028;-87
2021/09/11 04:14:44;;;;;;;6.85;5.78;;;;;;;;;;6217120;28;20032;-89
2021/09/11 04:17:45;;;;;;;7.55;5.97;;;;;;;;;;6234466;28;20186;-86
2021/09/11 04:20:46;;;;;;;8.18;6.82;;;;;;;;;;6236020;28;20021;-87
2021/09/11 04:23:47;;;;;;;7.97;6.85;;;;;;;;;;6235748;28;20067;-87
2021/09/11 04:26:47;;;;;;;7.35;6.47;;;15.50;99.90;;;;;;6235327;28;20021;-88
2021/09/11 04:29:48;;;;;;;9.55;7.00;;;;;;;;;;6217325;28;20037;-87
2021/09/11 04:32:49;;;;;;;8.25;7.35;;;;;;;;;;6234027;28;20021;-88
2021/09/11 04:35:50;;;;;;;7.60;6.90;;;;;;;;;;6233631;28;20450;-85
2021/09/11 04:38:51;;;;;;;9.57;7.32;;;;;;;;;;6233907;28;20033;-86
2021/09/11 04:41:52;;;;;;;8.00;7.22;;;;;;;;;;6234056;28;20056;-86
2021/09/11 04:44:53;;;;;;;8.82;6.13;;;;;;;;;;6234066;28;20024;-87
2021/09/11 04:47:54;;;;;;;8.18;6.18;;;15.60;99.90;;;;;;6250500;28;20900;-85
2021/09/11 04:50:55;;;;;;;9.45;6.82;;;;;;;;;;6217633;28;20120;-86
2021/09/11 04:53:56;;;;;;;7.45;6.72;;;;;;;;;;6234068;28;20125;-87
2021/09/11 04:56:57;;;;;;;8.15;6.35;;;;;;;;;;6233651;28;20033;-87
2021/09/11 04:59:58;;;;;;;9.10;6.60;;;15.50;99.90;;;;;;6250669;28;20021;-87
2021/09/11 05:02:59;;;;;;;7.90;6.80;;;;;;;;;;6216819;28;20485;-87
2021/09/11 05:06:00;;;;;;;8.80;7.18;;;15.50;99.90;;;;;;6233473;28;20060;-87
2021/09/11 05:09:01;;;;;;;8.07;6.20;;;;;;;;;;6217107;28;20386;-88
2021/09/11 05:12:04;;;;;;;7.05;6.30;;;15.40;99.90;;;;;;6233190;28;20032;-87
2021/09/11 05:15:05;;;;;;;7.40;6.28;;;15.60;99.90;;;;;;6217451;28;20037;-89
2021/09/11 05:18:06;;;;;;;7.70;6.78;;;15.50;99.90;;;;;;6217626;28;20029;-88
2021/09/11 05:21:07;;;;;;;7.22;6.28;;;15.40;99.90;;;;;;6217282;28;20025;-87
2021/09/11 05:24:08;;;;;;;7.70;5.88;;;;;;;;;;6234277;28;20434;-89
2021/09/11 05:27:09;;;;;;;6.75;6.03;;;;;;;;;;6236938;28;20021;-87
2021/09/11 05:30:10;;;;;;;8.45;5.95;;;;;;;;;;6237891;28;20079;-85
2021/09/11 05:33:11;;;;;;;8.23;6.03;;;;;;;;;;6237810;28;20024;-86
2021/09/11 05:36:12;;;;;;;6.78;6.00;;;;;;;;;;6237324;28;20423;-87
2021/09/11 05:39:13;;;;;;;7.35;6.10;;;;;;;;;;6237324;28;20064;-87
2021/09/11 05:42:14;;;;;;;6.90;6.03;;;;;;;;;;6271830;28;20029;-86
2021/09/11 05:45:14;;;;;;;7.50;6.38;;;15.70;99.90;;;;;;6254101;28;20032;-86
2021/09/11 05:48:18;;;;;;;11.63;6.13;;;;;;;;;;6221351;28;20029;-87
2021/09/11 05:51:18;;;;;;;8.23;6.60;;;15.70;99.90;;;;;;6237146;28;20098;-86
2021/09/11 05:54:20;;;;;;;7.93;6.57;;;;;;;;;;6220766;28;20025;-87
2021/09/11 05:57:20;;;;;;;7.85;7.05;;;15.70;99.90;;;;;;6236877;28;20050;-86
2021/09/11 06:00:21;;;;;;;6.75;5.75;;;15.70;99.90;;;;;;6220454;28;20029;-87
2021/09/11 06:03:21;;;;;;;8.88;6.63;;;15.80;99.90;;;;;;6220502;28;20029;-86
2021/09/11 06:06:22;;;;;;;7.15;5.78;;;;;;;;;;6220786;28;20059;-87
2021/09/11 06:09:23;;;;;;;6.68;5.97;;;;;;;;;;6237387;28;20447;-86
2021/09/11 06:12:24;;;;;;;9.98;7.38;;;15.90;99.90;;;;;;6236342;28;20116;-88
2021/09/11 06:15:25;;;;;;;7.88;6.63;;;;;;;;;;6220613;28;20032;-87
2021/09/11 06:18:26;;;;;;;7.07;6.25;;;15.90;99.90;;;;;;6237722;28;20107;-87
2021/09/11 06:21:27;;;;;;;7.30;6.35;;;16.10;99.90;;;;;;6221370;28;20029;-87
2021/09/11 06:24:28;;;;;;;6.80;6.10;;;16.40;99.90;;;;;;6236592;28;20029;-89
2021/09/11 06:27:29;;;;;;;8.05;6.47;;;16.20;99.90;;;;;;6220214;28;20112;-87
2021/09/11 06:30:30;;;;;;;7.10;6.07;;;;;;;;;;6219781;28;20036;-88
2021/09/11 06:33:30;;;;;;;10.77;6.97;;;16.50;99.90;;;;;;6236260;28;20367;-86
2021/09/11 06:36:31;;;;;;;7.82;6.63;;;;;;;;;;6235155;28;20080;-88
2021/09/11 06:39:32;;;;;;;7.18;6.43;;;;;;;;;;6235843;28;20021;-87
2021/09/11 06:42:33;;;;;;;8.02;5.53;;;;;;;;;;6236179;28;20060;-87
2021/09/11 06:45:40;;;;;;;7.50;5.20;;;;;;;;;;6235886;28;20020;-88
2021/09/11 06:48:41;;;;;;;8.02;5.00;;;19.90;99.90;;;;;;6236334;28;20025;-87
2021/09/11 06:51:42;;;;;;;9.32;5.03;;;;;;;;;;6220182;28;20032;-87
2021/09/11 06:54:43;;;;;;;6.78;5.18;;;;;;;;;;6236747;28;20523;-87
2021/09/11 06:57:44;;;;;;;10.07;5.05;;;;;;;;;;6235877;28;20021;-87
2021/09/11 07:00:44;;;;;;;6.80;4.60;;;19.60;99.90;;;;;;6236128;28;20026;-88
2021/09/11 07:03:46;;;;;;;4.65;3.90;;;;;;;;;;6219008;28;20112;-90
2021/09/11 07:06:46;;;;;;;4.43;4.00;;;21.10;99.90;;;;;;6234982;28;20055;-85
2021/09/11 07:09:47;;;;;;;5.90;4.60;;;;;;;;;;6218226;28;20063;-84
2021/09/11 07:12:48;;;;;;;5.00;4.50;;;22.30;99.90;;;;;;6251953;28;20071;-87
2021/09/11 07:15:49;;;;;;;6.30;5.22;;;;;;;;;;6252076;28;20044;-86
2021/09/11 07:18:50;;;;;;;7.43;4.80;;;21.50;99.90;;;;;;6232627;28;20036;-85
2021/09/11 07:21:51;;;;;;;5.53;4.78;;;20.90;99.90;;;;;;6218549;28;20020;-87
2021/09/11 07:24:52;;;;;;;6.72;4.95;;;;;;;;;;6218607;28;20060;-86
2021/09/11 07:27:54;;;;;;;5.88;5.05;;;20.50;99.90;;;;;;6235043;28;20032;-85
2021/09/11 07:30:55;;;;;;;6.82;4.97;;;;;;;;;;6218532;28;20478;-85
2021/09/11 07:33:55;;;;;;;6.65;5.07;;;20.50;99.90;;;;;;6234465;28;20555;-84
2021/09/11 07:36:56;;;;;;;6.00;4.70;;;;;;;;;;6218052;28;20057;-85
2021/09/11 07:39:57;;;;;;;6.43;4.97;;;20.50;99.90;;;;;;6234018;28;20028;-86
2021/09/11 07:42:58;;;;;;;6.82;5.10;;;;;;;;;;6234199;28;20541;-83
2021/09/11 07:45:59;;;;;;;5.75;4.95;;;;;;;;;;6250757;28;20375;-87
2021/09/11 07:49:00;;;;;;;6.25;5.22;;;;;;;;;;6249891;28;20016;-83
2021/09/11 07:52:10;;;;;;;6.50;5.30;;;21.70;99.90;;;;;;6234350;28;20359;-91
2021/09/11 07:55:11;;;;;;;6.93;4.93;;;21.80;99.90;;;;;;6218820;28;20090;-86
2021/09/11 07:58:12;;;;;;;6.45;4.60;;;22.80;99.90;;;;;;6217784;28;20025;-87
2021/09/11 08:01:15;;;;;;;4.63;4.07;;;23.20;99.90;;;;;;6234525;28;20028;-89
2021/09/11 08:04:16;;;;;;;5.03;4.53;;;24.20;99.90;;;;;;6234182;28;20029;-87
2021/09/11 08:07:27;;;;;;;;;;;;;;;;;;;;;
2021/09/11 08:10:29;;;;;;;8.05;4.22;;;;;;;;;;6251896;28;20168;-87
2021/09/11 08:13:29;;;;;;;5.73;3.90;;;26.60;98.70;;;;;;6233411;28;20020;-88
2021/09/11 08:16:30;;;;;;;6.30;4.20;;;;;;;;;;6217446;28;20044;-87
2021/09/11 08:19:31;;;;;;;5.43;4.33;;;28.50;93.70;;;;;;6248975;28;20029;-88
2021/09/11 08:22:32;;;;;;;5.03;4.07;;;;;;;;;;6233959;28;20518;-91
2021/09/11 08:25:36;;;;;;;4.32;3.92;;;;;;;;;;6234413;28;20459;-90
2021/09/11 08:32:19;;;;;;;4.63;4.22;;;;;;;;;;6250986;28;20029;-87
2021/09/11 08:35:20;;;;;;;5.15;4.13;;;;;;;;;;6232532;28;20057;-89
2021/09/11 08:38:21;;;;;;;4.88;4.05;;;30.50;87.00;;;;;;6233072;28;20079;-88
2021/09/11 08:41:21;;;;;;;6.13;4.60;;;30.30;86.60;;;;;;6216592;28;20025;-87
2021/09/11 08:44:23;;;;;;;5.03;4.23;;;29.60;87.30;;;;;;6216692;28;20021;-87
2021/09/11 08:47:24;;;;;;;5.25;4.03;;;;;;;;;;6234067;28;20020;-89
2021/09/11 08:50:25;;;;;;;4.10;3.70;;;29.90;86.00;;;;;;6233198;28;20017;-87
2021/09/11 08:53:25;;;;;;;4.67;4.17;;;30.40;83.40;;;;;;6217212;28;20048;-88
2021/09/11 08:56:27;;;;;;;7.00;3.83;;;;;;;;;;6216360;28;20053;-86
2021/09/11 08:59:27;;;;;;;5.40;3.50;;;30.40;79.50;;;;;;6234105;28;20124;-87
2021/09/11 09:02:28;;;;;;;4.30;3.63;;;30.30;82.30;;;;;;6222096;28;20049;-87
2021/09/11 09:05:31;;;;;;;5.53;4.40;;;30.50;83.50;;;;;;6220994;28;20017;-87
2021/09/11 09:08:32;;;;;;;5.82;4.07;;;30.20;85.20;;;;;;6220666;28;20032;-89
2021/09/11 09:11:39;;;;;;;7.00;3.93;;;30.20;82.30;;;;;;6221676;28;20033;-89
2021/09/11 09:14:45;;;;;;;6.03;4.50;;;30.50;82.00;;;;;;6222069;28;20033;-86
2021/09/11 09:17:53;;;;;;;4.70;4.10;;;30.30;82.50;;;;;;6221988;28;20469;-88
2021/09/11 09:20:54;;;;;;;6.53;4.25;;;30.50;99.20;;;;;;6221065;28;20048;-84
2021/09/11 09:24:00;;;;;;;7.63;4.75;;;30.60;93.10;;;;;;6237818;28;20021;-90
2021/09/11 09:27:29;;;;;;;4.30;3.90;;;30.10;92.40;;;;;;6254820;28;20467;-91
2021/09/11 09:30:55;;;;;;;5.00;4.50;;;30.80;91.90;;;;;;6224482;28;20025;-92
2021/09/11 09:33:56;;;;;;;5.05;4.13;;;;;;;;;;6219713;28;20120;-87
2021/09/11 09:36:58;;;;;;;5.65;4.30;;;31.00;76.70;;;;;;6202950;28;20476;-87
2021/09/11 09:39:59;;;;;;;4.63;4.20;;;29.90;90.80;;;;;;6202381;28;20034;-84
2021/09/11 09:43:00;;;;;;;5.25;4.15;;;29.40;97.90;;;;;;6218142;28;20053;-82
2021/09/11 09:46:04;;;;;;;5.63;5.10;;;29.40;98.00;;;;;;6218613;28;20030;-87
2021/09/11 09:49:05;;;;;;;5.65;5.05;;;;;;;;;;6202138;28;20030;-84
2021/09/11 09:52:06;;;;;;;7.15;5.72;;;29.20;93.20;;;;;;6202524;28;20516;-88
2021/09/11 09:55:07;;;;;;;6.78;5.65;;;30.20;85.00;;;;;;6201913;28;20046;-88
2021/09/11 09:58:08;;;;;;;;;;;28.60;83.80;;;;;;6218557;28;20034;-85
2021/09/11 10:01:09;;;;;;;6.60;6.00;;;27.90;88.00;;;;;;6218789;28;19963;-86
2021/09/11 10:04:22;;;;;;;7.00;6.30;;;27.20;89.40;;;;;;6239234;28;20052;-88
2021/09/11 10:07:22;;;;;;;6.97;6.05;;;27.10;90.20;;;;;;6220491;28;20025;-86
2021/09/11 10:10:39;;;;;;;7.30;6.20;;;27.70;90.90;;;;;;6220639;28;20059;-91
2021/09/11 10:13:57;;;;;;;6.78;6.13;;;29.30;92.60;;;;;;6237262;28;20040;-86
2021/09/11 10:17:02;;;;;;;6.40;5.80;;;29.40;91.00;;;;;;6221222;28;20052;-90
2021/09/11 10:20:04;;;;;;;5.70;5.20;;;29.40;90.90;;;;;;6219759;28;20021;-86
2021/09/11 10:23:06;;;;;;;6.20;5.65;;;30.20;80.10;;;;;;6220290;28;20119;-86
2021/09/11 10:26:14;;;;;;;7.65;5.07;;;30.70;92.10;;;;;;6220293;28;20082;-85
2021/09/11 10:29:33;;;;;;;6.53;5.88;;;30.50;79.50;;;;;;6221111;28;20032;-85
2021/09/11 10:32:34;;;;;;;6.07;5.55;;;29.70;79.10;;;;;;6251671;28;20412;-86
2021/09/11 10:35:37;;;;;;;6.37;5.77;;;28.70;81.80;;;;;;6252305;28;20135;-81
2021/09/11 10:38:39;;;;;;;7.32;6.55;;;28.10;83.30;;;;;;6235612;28;20036;-86
2021/09/11 10:41:40;;;;;;;7.47;6.15;;;26.80;95.00;;;;;;6251768;28;20044;-80
2021/09/11 10:44:40;;;;;;;8.20;6.03;;;26.80;87.30;;;;;;6219160;28;20063;-80
2021/09/11 10:47:44;;;;;;;6.33;5.73;;;27.40;86.90;;;;;;6252580;28;20036;-80
2021/09/11 10:50:48;;;;;;;5.85;5.35;;;27.40;84.20;;;;;;6249656;28;20033;-81
2021/09/11 10:57:46;;;;;;;6.97;5.93;;;27.40;86.70;;;;;;6269302;28;20080;-84
2021/09/11 11:01:14;;;;;;;6.47;5.40;;;26.00;95.30;;;;;;6217612;28;20039;-87
2021/09/11 11:04:25;;;;;;;6.15;5.25;;;26.20;88.30;;;;;;6222841;28;20034;-84
2021/09/11 11:07:27;;;;;;;6.95;6.00;;;25.90;88.00;;;;;;6248013;28;20037;-83
2021/09/11 11:10:27;;;;;;;7.68;6.20;;;26.30;90.90;;;;;;6217665;28;20116;-84
2021/09/11 11:13:40;;;;;;;7.30;6.53;;;27.50;92.00;;;;;;6251451;28;20455;-88
2021/09/11 11:16:48;;;;;;;7.55;6.78;;;27.00;88.40;;;;;;6252954;28;20455;-85
2021/09/11 11:19:51;;;;;;;6.85;6.15;;;27.40;86.20;;;;;;6233758;28;20025;-85
2021/09/11 11:22:51;;;;;;;7.13;6.20;;;27.10;87.40;;;;;;6217343;28;20075;-79
2021/09/11 11:25:52;;;;;;;7.97;6.23;;;26.90;90.40;;;;;;6234032;28;20025;-81
2021/09/11 11:28:53;;;;;;;7.40;6.10;;;26.20;95.70;;;;;;6218543;28;20492;-82
2021/09/11 11:31:53;;;;;;;6.83;5.87;;;26.40;99.90;;;;;;6218375;28;20025;-82
2021/09/11 11:34:59;;;;;;;9.33;5.70;;;27.00;99.90;;;;;;6234110;28;20056;-82
2021/09/11 11:38:00;;;;;;;6.07;4.95;;;27.60;99.90;;;;;;6236666;28;20033;-82
2021/09/11 11:41:04;;;;;;;7.50;5.30;;;28.00;94.60;;;;;;6268810;28;20075;-82
2021/09/11 11:44:05;;;;;;;6.88;6.18;;;;;;;;;;6218241;28;20051;-83
2021/09/11 11:47:39;;;;;;;12.45;7.05;;;27.40;99.90;;;;;;6250681;28;20048;-81
2021/09/11 11:50:41;;;;;;;10.55;7.65;;;26.80;99.90;;;;;;6268333;28;20032;-84
2021/09/11 11:53:42;;;;;;;10.38;8.30;;;;;;;;;;6218109;28;20032;-83
2021/09/11 11:56:47;;;;;;;8.80;7.90;;;26.00;93.30;;;;;;6250521;28;20116;-84
2021/09/11 12:00:05;;;;;;;8.45;7.57;;;25.80;94.70;;;;;;6217837;28;20037;-83
2021/09/11 12:03:06;;;;;;;8.18;7.38;;;;;;;;;;6251001;28;20032;-84
2021/09/11 12:06:25;;;;;;;8.30;7.50;;;25.80;95.40;;;;;;6250650;28;20041;-83
2021/09/11 12:09:26;;;;;;;8.43;7.55;;;25.60;95.40;;;;;;6233866;28;20421;-81
2021/09/11 12:12:46;;;;;;;7.73;7.03;;;25.80;92.90;;;;;;6249808;28;20021;-81
2021/09/11 12:15:47;;;;;;;9.95;7.38;;;26.40;91.60;;;;;;6235617;28;20562;-81
2021/09/11 12:18:48;;;;;;;7.73;6.73;;;27.00;90.70;;;;;;6232987;28;20124;-80
2021/09/11 12:21:51;;;;;;;8.13;7.03;;;27.10;90.50;;;;;;6232699;28;20025;-82
2021/09/11 12:25:01;;;;;;;8.02;7.03;;;26.90;90.00;;;;;;6217869;28;20112;-83
2021/09/11 12:28:23;;;;;;;8.00;6.85;;;26.40;90.00;;;;;;6217366;28;20459;-83
2021/09/11 12:31:25;;;;;;;8.48;6.78;;;25.80;90.80;;;;;;6236469;28;20052;-82
2021/09/11 12:34:26;;;;;;;8.40;7.15;;;25.60;91.00;;;;;;6234293;28;20035;-84
2021/09/11 12:37:27;;;;;;;7.40;6.70;;;25.40;92.40;;;;;;6222267;28;20448;-84
2021/09/11 12:40:27;;;;;;;7.63;6.93;;;25.40;99.80;;;;;;6222284;28;20130;-82
2021/09/11 12:43:28;;;;;;;8.53;7.30;;;25.10;98.00;;;;;;6238593;28;20029;-80
2021/09/11 12:46:36;;;;;;;8.50;7.63;;;25.00;93.20;;;;;;6272753;28;20074;-84
2021/09/11 12:49:41;;;;;;;7.90;7.10;;;24.90;99.90;;;;;;6239093;28;20116;-82
2021/09/11 12:52:41;;;;;;;8.48;7.68;;;25.00;94.40;;;;;;6254921;28;20013;-85
2021/09/11 12:55:42;;;;;;;7.53;6.77;;;25.00;94.30;;;;;;6254593;28;20060;-82
2021/09/11 12:58:42;;;;;;;7.97;6.83;;;24.80;93.50;;;;;;6221192;28;20029;-85
2021/09/11 13:01:43;;;;;;;8.73;6.83;;;24.60;93.10;;;;;;6221025;28;20029;-84
2021/09/11 13:04:55;;;;;;;7.33;6.63;;;26.30;99.90;;;;;;6236648;28;20064;-84
2021/09/11 13:07:56;;;;;;;;;;;24.00;95.00;;;;;;6222897;28;20584;-86
2021/09/11 13:10:57;;;;;;;7.25;5.95;;;23.80;95.70;;;;;;6237953;28;19900;-81
2021/09/11 13:13:58;;;;;;;6.45;5.68;;;23.70;96.30;;;;;;6237793;28;20132;-82
2021/09/11 13:16:58;;;;;;;6.73;6.07;;;23.60;96.30;;;;;;6236664;28;20409;-81
2021/09/11 13:19:59;;;;;;;7.43;5.50;;;23.50;97.10;;;;;;6237605;28;20455;-82
2021/09/11 13:22:59;;;;;;;7.37;5.67;;;23.40;97.80;;;;;;6237618;28;20021;-82
2021/09/11 13:26:00;;;;;;;5.17;4.50;;;23.30;98.50;;;;;;6253212;28;20060;-81
2021/09/11 13:29:02;;;;;;;6.93;5.10;;;;;;;;;;6254155;28;20036;-82
2021/09/11 13:32:03;;;;;;;4.55;4.15;;;23.20;98.70;;;;;;6254159;28;20016;-83
2021/09/11 13:35:05;;;;;;;5.70;4.07;;;23.40;99.40;;;;;;6236814;28;20052;-82
2021/09/11 13:38:05;;;;;;;4.75;4.25;;;23.60;98.70;;;;;;6237400;28;20033;-82
2021/09/11 13:41:06;;;;;;;5.53;4.18;;;23.70;98.60;;;;;;6253272;28;20033;-86
2021/09/11 13:44:07;;;;;;;4.82;4.22;;;23.70;98.40;;;;;;6219928;28;20360;-85
2021/09/11 13:47:07;;;;;;;7.93;4.00;;;23.70;98.80;;;;;;6218530;28;20132;-85
2021/09/11 13:50:08;;;;;;;4.63;4.17;;;23.70;99.90;;;;;;6219831;28;20455;-85
2021/09/11 13:53:09;;;;;;;3.80;3.40;;;23.80;99.90;;;;;;6236491;28;20387;-80
2021/09/11 13:56:11;;;;;;;3.97;3.57;;;23.60;98.40;;;;;;6235995;28;20064;-84
2021/09/11 13:59:12;;;;;;;3.90;3.50;;;23.50;99.70;;;;;;6253311;28;20158;-81
2021/09/11 14:02:12;;;;;;;4.60;3.30;;;23.20;99.90;;;;;;6253117;28;20029;-79
2021/09/11 14:05:13;;;;;;;3.33;3.03;;;23.20;99.90;;;;;;6253152;28;20025;-82
2021/09/11 14:08:13;;;;;;;3.50;3.17;;;23.20;99.90;;;;;;6236133;28;20371;-82
2021/09/11 14:11:14;;;;;;;3.40;3.10;;;23.10;99.90;;;;;;6235306;28;20025;-81
2021/09/11 14:14:15;;;;;;;3.40;3.10;;;22.90;99.90;;;;;;6235922;28;20379;-81
2021/09/11 14:17:15;;;;;;;3.30;3.00;;;23.10;99.90;;;;;;6252306;28;20037;-81
2021/09/11 14:20:16;;;;;;;3.37;3.07;;;22.80;99.90;;;;;;6270088;28;20025;-80
2021/09/11 14:23:17;;;;;;;4.18;3.25;;;22.80;99.90;;;;;;6252078;28;20028;-81
2021/09/11 14:26:17;;;;;;;4.23;3.27;;;22.90;99.90;;;;;;6234708;28;20075;-81
2021/09/11 14:29:20;;;;;;;4.53;3.17;;;23.30;99.90;;;;;;6251310;28;20033;-81
2021/09/11 14:32:20;;;;;;;3.53;3.22;;;23.30;99.90;;;;;;6256865;28;20021;-81
2021/09/11 14:35:21;;;;;;;5.23;3.13;;;;;;;;;;6269365;28;20048;-81
2021/09/11 14:38:22;;;;;;;3.38;3.08;;;;;;;;;;6234495;28;20455;-80
2021/09/11 14:41:23;;;;;;;3.58;3.05;;;22.90;99.90;;;;;;6234456;28;20032;-81
2021/09/11 14:44:24;;;;;;;3.78;3.30;;;23.00;99.90;;;;;;6250797;28;20040;-86
2021/09/11 14:47:29;;;;;;;3.55;3.22;;;22.70;99.90;;;;;;6235194;28;20029;-84
2021/09/11 14:50:30;;;;;;;3.75;3.30;;;22.40;99.90;;;;;;6218882;28;20074;-82
2021/09/11 14:53:30;;;;;;;2.97;2.63;;;22.70;99.90;;;;;;6250760;28;20025;-83
2021/09/11 14:56:31;;;;;;;3.13;2.75;;;22.20;99.90;;;;;;6218225;28;20119;-83
2021/09/11 14:59:32;;;;;;;4.07;3.22;;;22.50;99.90;;;;;;6233671;28;20519;-83
2021/09/11 15:02:32;;;;;;;3.00;2.70;;;22.20;99.90;;;;;;6234466;28;20045;-81
2021/09/11 15:05:33;;;;;;;3.22;2.60;;;22.10;99.90;;;;;;6250831;28;20537;-83
2021/09/11 15:08:34;;;;;;;2.80;2.50;;;22.10;99.90;;;;;;6235209;28;20048;-83
2021/09/11 15:11:34;;;;;;;3.30;2.83;;;22.20;99.90;;;;;;6234235;28;20033;-84
2021/09/11 15:14:35;;;;;;;3.17;2.88;;;22.30;99.90;;;;;;6235230;28;20037;-84
2021/09/11 15:17:36;;;;;;;3.67;3.00;;;22.30;99.90;;;;;;6234737;28;20055;-82
2021/09/11 15:20:36;;;;;;;3.23;2.90;;;22.30;99.90;;;;;;6250726;28;20036;-81
2021/09/11 15:23:37;;;;;;;4.03;3.10;;;22.30;99.90;;;;;;6235041;28;20079;-82
2021/09/11 15:26:39;;;;;;;4.97;3.00;;;22.50;99.90;;;;;;6234733;28;20110;-82
2021/09/11 15:29:40;;;;;;;4.03;2.88;;;22.60;99.90;;;;;;6234511;28;20029;-83
2021/09/11 15:32:41;;;;;;;3.20;2.90;;;22.70;99.90;;;;;;6234276;28;20025;-80
2021/09/11 15:35:41;;;;;;;3.70;2.83;;;22.70;99.90;;;;;;6217936;28;20061;-80
2021/09/11 15:38:42;;;;;;;2.85;2.40;;;22.80;99.90;;;;;;6233037;28;20031;-80
2021/09/11 15:41:42;;;;;;;4.15;2.55;;;22.60;99.40;;;;;;6217837;28;20037;-80
2021/09/11 15:44:43;;;;;;;2.70;2.50;;;22.70;99.80;;;;;;6234227;28;20033;-80
2021/09/11 15:47:44;;;;;;;2.63;2.33;;;22.90;99.10;;;;;;6234188;28;20029;-80
2021/09/11 15:50:44;;;;;;;2.97;2.67;;;23.00;98.10;;;;;;6250959;28;20465;-80
2021/09/11 15:53:45;;;;;;;2.80;2.50;;;23.10;97.80;;;;;;6250902;28;20025;-80
2021/09/11 15:56:46;;;;;;;3.85;2.58;;;23.10;98.30;;;;;;6234172;28;20079;-80
2021/09/11 15:59:46;;;;;;;2.78;2.50;;;23.20;98.20;;;;;;6250305;28;20021;-80
2021/09/11 16:02:47;;;;;;;2.90;2.57;;;23.20;98.00;;;;;;6250273;28;20462;-80
2021/09/11 16:05:47;;;;;;;3.07;2.70;;;23.30;97.50;;;;;;6250179;28;20025;-80
2021/09/11 16:08:48;;;;;;;2.70;2.50;;;23.30;97.00;;;;;;6233320;28;20082;-80
2021/09/11 16:11:49;;;;;;;3.53;2.57;;;23.20;97.10;;;;;;6232910;28;20037;-81
2021/09/11 16:14:49;;;;;;;3.10;2.67;;;23.30;96.80;;;;;;6216317;28;20119;-79
2021/09/11 16:17:52;;;;;;;4.65;3.15;;;23.20;97.40;;;;;;6267454;28;20048;-79
2021/09/11 16:20:53;;;;;;;3.10;2.78;;;23.20;97.30;;;;;;6233930;28;20024;-81
2021/09/11 16:23:53;;;;;;;3.03;2.63;;;23.10;97.60;;;;;;6216766;28;20367;-79
2021/09/11 16:26:54;;;;;;;2.87;2.60;;;23.00;97.90;;;;;;6267707;28;20041;-81
2021/09/11 16:29:54;;;;;;;4.57;3.47;;;22.80;98.30;;;;;;6250883;28;20103;-81
2021/09/11 16:32:55;;;;;;;2.88;2.60;;;22.70;97.70;;;;;;6216758;28;20056;-82
2021/09/11 16:35:56;;;;;;;4.60;3.20;;;22.60;97.50;;;;;;6232598;28;20045;-83